sensor_id;sensor_type;location;lat;lon;timestamp;P1;durP1;ratioP1;P2;durP2;ratioP2
74939;SDS011;63505;45.226;37.908;2023-03-12T00:01:38;11.70;;;3.70;;
74939;SDS011;63505;45.226;37.908;2023-03-12T00:04:04;7.88;;;3.05;;
74939;SDS011;63505;45.226;37.908;2023-03-12T00:06:30;9.73;;;3.97;;
74939;SDS011;63505;45.226;37.908;2023-03-12T00:08:57;7.55;;;3.30;;
74939;SDS011;63505;45.226;37.908;2023-03-12T00:11:26;9.93;;;3.30;;
74939;SDS011;63505;45.226;37.908;2023-03-12T00:13:53;7.35;;;3.35;;
74939;SDS011;63505;45.226;37.908;2023-03-12T00:16:21;4.78;;;2.20;;
74939;SDS011;63505;45.226;37.908;2023-03-12T00:18:47;6.72;;;2.65;;
74939;SDS011;63505;45.226;37.908;2023-03-12T00:21:14;3.80;;;2.33;;
74939;SDS011;63505;45.226;37.908;2023-03-12T00:23:40;7.57;;;3.42;;
74939;SDS011;63505;45.226;37.908;2023-03-12T00:26:08;9.05;;;3.67;;
74939;SDS011;63505;45.226;37.908;2023-03-12T00:31:02;15.60;;;4.43;;
74939;SDS011;63505;45.226;37.908;2023-03-12T00:33:37;16.10;;;4.13;;
74939;SDS011;63505;45.226;37.908;2023-03-12T00:36:02;13.00;;;4.18;;
74939;SDS011;63505;45.226;37.908;2023-03-12T00:38:28;8.55;;;4.05;;
74939;SDS011;63505;45.226;37.908;2023-03-12T00:40:55;15.90;;;3.65;;
74939;SDS011;63505;45.226;37.908;2023-03-12T00:43:21;14.75;;;4.28;;
74939;SDS011;63505;45.226;37.908;2023-03-12T00:45:47;2.83;;;1.50;;
74939;SDS011;63505;45.226;37.908;2023-03-12T00:48:13;12.23;;;3.60;;
74939;SDS011;63505;45.226;37.908;2023-03-12T00:50:38;5.43;;;2.15;;
74939;SDS011;63505;45.226;37.908;2023-03-12T00:53:04;4.07;;;1.75;;
74939;SDS011;63505;45.226;37.908;2023-03-12T00:55:31;9.10;;;3.22;;
74939;SDS011;63505;45.226;37.908;2023-03-12T00:57:56;6.60;;;3.10;;
74939;SDS011;63505;45.226;37.908;2023-03-12T01:00:22;5.57;;;2.65;;
74939;SDS011;63505;45.226;37.908;2023-03-12T01:02:48;10.38;;;2.65;;
74939;SDS011;63505;45.226;37.908;2023-03-12T01:05:14;12.23;;;2.63;;
74939;SDS011;63505;45.226;37.908;2023-03-12T01:07:40;8.63;;;2.58;;
74939;SDS011;63505;45.226;37.908;2023-03-12T01:10:07;7.10;;;3.33;;
74939;SDS011;63505;45.226;37.908;2023-03-12T01:12:34;4.68;;;2.20;;
74939;SDS011;63505;45.226;37.908;2023-03-12T01:15:00;7.85;;;3.50;;
74939;SDS011;63505;45.226;37.908;2023-03-12T01:17:26;5.25;;;2.13;;
74939;SDS011;63505;45.226;37.908;2023-03-12T01:19:52;5.68;;;2.25;;
74939;SDS011;63505;45.226;37.908;2023-03-12T01:22:18;3.60;;;1.70;;
74939;SDS011;63505;45.226;37.908;2023-03-12T01:24:43;8.95;;;2.50;;
74939;SDS011;63505;45.226;37.908;2023-03-12T01:27:09;11.13;;;3.97;;
74939;SDS011;63505;45.226;37.908;2023-03-12T01:29:35;6.15;;;3.47;;
74939;SDS011;63505;45.226;37.908;2023-03-12T01:32:01;5.63;;;2.65;;
74939;SDS011;63505;45.226;37.908;2023-03-12T01:34:27;5.22;;;2.17;;
74939;SDS011;63505;45.226;37.908;2023-03-12T01:36:55;2.55;;;1.50;;
74939;SDS011;63505;45.226;37.908;2023-03-12T01:39:20;11.05;;;2.95;;
74939;SDS011;63505;45.226;37.908;2023-03-12T01:41:46;7.90;;;2.17;;
74939;SDS011;63505;45.226;37.908;2023-03-12T01:44:13;4.35;;;2.05;;
74939;SDS011;63505;45.226;37.908;2023-03-12T01:46:39;7.43;;;2.45;;
74939;SDS011;63505;45.226;37.908;2023-03-12T01:51:49;9.02;;;2.60;;
74939;SDS011;63505;45.226;37.908;2023-03-12T01:54:25;38.17;;;15.15;;
74939;SDS011;63505;45.226;37.908;2023-03-12T01:56:56;6.45;;;3.08;;
74939;SDS011;63505;45.226;37.908;2023-03-12T01:59:27;15.20;;;4.35;;
74939;SDS011;63505;45.226;37.908;2023-03-12T02:02:00;9.23;;;3.35;;
74939;SDS011;63505;45.226;37.908;2023-03-12T02:04:28;6.35;;;1.60;;
74939;SDS011;63505;45.226;37.908;2023-03-12T02:09:32;8.30;;;2.88;;
74939;SDS011;63505;45.226;37.908;2023-03-12T02:14:26;12.88;;;4.10;;
74939;SDS011;63505;45.226;37.908;2023-03-12T02:16:52;2.58;;;1.35;;
74939;SDS011;63505;45.226;37.908;2023-03-12T02:19:29;3.53;;;1.70;;
74939;SDS011;63505;45.226;37.908;2023-03-12T02:26:55;3.92;;;1.65;;
74939;SDS011;63505;45.226;37.908;2023-03-12T02:29:21;7.07;;;2.85;;
74939;SDS011;63505;45.226;37.908;2023-03-12T02:31:51;5.45;;;3.35;;
74939;SDS011;63505;45.226;37.908;2023-03-12T02:34:19;4.53;;;2.65;;
74939;SDS011;63505;45.226;37.908;2023-03-12T02:36:46;5.72;;;2.92;;
74939;SDS011;63505;45.226;37.908;2023-03-12T02:39:13;2.38;;;1.65;;
74939;SDS011;63505;45.226;37.908;2023-03-12T02:41:40;5.22;;;2.53;;
74939;SDS011;63505;45.226;37.908;2023-03-12T02:46:42;5.20;;;2.10;;
74939;SDS011;63505;45.226;37.908;2023-03-12T02:49:14;4.05;;;2.58;;
74939;SDS011;63505;45.226;37.908;2023-03-12T02:51:41;7.75;;;2.40;;
74939;SDS011;63505;45.226;37.908;2023-03-12T02:54:08;4.35;;;1.63;;
74939;SDS011;63505;45.226;37.908;2023-03-12T02:56:35;7.90;;;2.25;;
74939;SDS011;63505;45.226;37.908;2023-03-12T02:59:01;3.42;;;0.77;;
74939;SDS011;63505;45.226;37.908;2023-03-12T03:01:30;9.10;;;1.77;;
74939;SDS011;63505;45.226;37.908;2023-03-12T03:03:59;4.20;;;1.35;;
74939;SDS011;63505;45.226;37.908;2023-03-12T03:06:29;3.78;;;2.33;;
74939;SDS011;63505;45.226;37.908;2023-03-12T03:08:56;8.38;;;2.67;;
74939;SDS011;63505;45.226;37.908;2023-03-12T03:11:22;3.40;;;1.08;;
74939;SDS011;63505;45.226;37.908;2023-03-12T03:16:17;8.02;;;2.30;;
74939;SDS011;63505;45.226;37.908;2023-03-12T03:18:43;6.18;;;2.50;;
74939;SDS011;63505;45.226;37.908;2023-03-12T03:21:09;13.95;;;2.65;;
74939;SDS011;63505;45.226;37.908;2023-03-12T03:23:42;3.08;;;1.77;;
74939;SDS011;63505;45.226;37.908;2023-03-12T03:26:09;5.35;;;2.00;;
74939;SDS011;63505;45.226;37.908;2023-03-12T03:28:35;2.10;;;1.00;;
74939;SDS011;63505;45.226;37.908;2023-03-12T03:31:02;3.53;;;1.48;;
74939;SDS011;63505;45.226;37.908;2023-03-12T03:33:34;4.45;;;0.70;;
74939;SDS011;63505;45.226;37.908;2023-03-12T03:36:07;6.55;;;2.40;;
74939;SDS011;63505;45.226;37.908;2023-03-12T03:38:38;3.08;;;2.13;;
74939;SDS011;63505;45.226;37.908;2023-03-12T03:41:05;5.07;;;3.03;;
74939;SDS011;63505;45.226;37.908;2023-03-12T03:43:35;5.32;;;2.88;;
74939;SDS011;63505;45.226;37.908;2023-03-12T03:46:03;7.78;;;2.28;;
74939;SDS011;63505;45.226;37.908;2023-03-12T03:48:33;8.57;;;1.83;;
74939;SDS011;63505;45.226;37.908;2023-03-12T03:51:00;7.95;;;2.40;;
74939;SDS011;63505;45.226;37.908;2023-03-12T03:53:29;2.35;;;1.25;;
74939;SDS011;63505;45.226;37.908;2023-03-12T03:55:56;3.83;;;1.20;;
74939;SDS011;63505;45.226;37.908;2023-03-12T03:58:23;5.78;;;1.58;;
74939;SDS011;63505;45.226;37.908;2023-03-12T04:00:49;3.95;;;1.35;;
74939;SDS011;63505;45.226;37.908;2023-03-12T04:03:15;3.53;;;1.77;;
74939;SDS011;63505;45.226;37.908;2023-03-12T04:05:41;6.75;;;1.67;;
74939;SDS011;63505;45.226;37.908;2023-03-12T04:08:11;2.38;;;1.05;;
74939;SDS011;63505;45.226;37.908;2023-03-12T04:10:38;3.53;;;1.70;;
74939;SDS011;63505;45.226;37.908;2023-03-12T04:13:04;5.18;;;1.58;;
74939;SDS011;63505;45.226;37.908;2023-03-12T04:15:30;7.70;;;2.38;;
74939;SDS011;63505;45.226;37.908;2023-03-12T04:17:56;6.43;;;1.90;;
74939;SDS011;63505;45.226;37.908;2023-03-12T04:20:23;4.22;;;1.80;;
74939;SDS011;63505;45.226;37.908;2023-03-12T04:22:49;6.70;;;2.00;;
74939;SDS011;63505;45.226;37.908;2023-03-12T04:25:16;3.88;;;1.73;;
74939;SDS011;63505;45.226;37.908;2023-03-12T04:27:42;8.20;;;2.78;;
74939;SDS011;63505;45.226;37.908;2023-03-12T04:30:08;3.50;;;1.60;;
74939;SDS011;63505;45.226;37.908;2023-03-12T04:32:36;9.13;;;2.08;;
74939;SDS011;63505;45.226;37.908;2023-03-12T04:35:03;4.90;;;1.85;;
74939;SDS011;63505;45.226;37.908;2023-03-12T04:37:31;6.43;;;2.05;;
74939;SDS011;63505;45.226;37.908;2023-03-12T04:40:00;14.50;;;3.17;;
74939;SDS011;63505;45.226;37.908;2023-03-12T04:42:30;5.43;;;2.15;;
74939;SDS011;63505;45.226;37.908;2023-03-12T04:44:56;5.70;;;2.38;;
74939;SDS011;63505;45.226;37.908;2023-03-12T04:47:22;2.63;;;1.13;;
74939;SDS011;63505;45.226;37.908;2023-03-12T04:49:48;7.53;;;2.67;;
74939;SDS011;63505;45.226;37.908;2023-03-12T04:52:13;6.25;;;1.42;;
74939;SDS011;63505;45.226;37.908;2023-03-12T04:54:42;4.30;;;2.25;;
74939;SDS011;63505;45.226;37.908;2023-03-12T04:57:08;8.25;;;2.33;;
74939;SDS011;63505;45.226;37.908;2023-03-12T04:59:35;5.60;;;1.80;;
74939;SDS011;63505;45.226;37.908;2023-03-12T05:02:01;4.90;;;2.08;;
74939;SDS011;63505;45.226;37.908;2023-03-12T05:04:28;6.85;;;2.17;;
74939;SDS011;63505;45.226;37.908;2023-03-12T05:06:54;5.82;;;1.80;;
74939;SDS011;63505;45.226;37.908;2023-03-12T05:09:20;2.33;;;1.20;;
74939;SDS011;63505;45.226;37.908;2023-03-12T05:11:46;4.90;;;2.60;;
74939;SDS011;63505;45.226;37.908;2023-03-12T05:14:15;5.82;;;1.92;;
74939;SDS011;63505;45.226;37.908;2023-03-12T05:16:43;4.18;;;2.20;;
74939;SDS011;63505;45.226;37.908;2023-03-12T05:19:09;7.85;;;2.22;;
74939;SDS011;63505;45.226;37.908;2023-03-12T05:21:35;2.95;;;1.98;;
74939;SDS011;63505;45.226;37.908;2023-03-12T05:24:01;3.60;;;1.70;;
74939;SDS011;63505;45.226;37.908;2023-03-12T05:26:29;6.40;;;2.00;;
74939;SDS011;63505;45.226;37.908;2023-03-12T05:29:03;7.22;;;2.65;;
74939;SDS011;63505;45.226;37.908;2023-03-12T05:31:31;8.40;;;2.35;;
74939;SDS011;63505;45.226;37.908;2023-03-12T05:34:00;4.55;;;1.80;;
74939;SDS011;63505;45.226;37.908;2023-03-12T05:36:27;5.90;;;2.08;;
74939;SDS011;63505;45.226;37.908;2023-03-12T05:38:53;4.68;;;1.88;;
74939;SDS011;63505;45.226;37.908;2023-03-12T05:41:23;7.07;;;2.15;;
74939;SDS011;63505;45.226;37.908;2023-03-12T05:43:53;6.18;;;1.52;;
74939;SDS011;63505;45.226;37.908;2023-03-12T05:46:21;4.00;;;1.95;;
74939;SDS011;63505;45.226;37.908;2023-03-12T05:48:48;9.23;;;2.38;;
74939;SDS011;63505;45.226;37.908;2023-03-12T05:51:15;2.40;;;1.45;;
74939;SDS011;63505;45.226;37.908;2023-03-12T05:53:41;5.18;;;1.58;;
74939;SDS011;63505;45.226;37.908;2023-03-12T05:56:09;8.82;;;1.80;;
74939;SDS011;63505;45.226;37.908;2023-03-12T05:58:37;2.72;;;1.45;;
74939;SDS011;63505;45.226;37.908;2023-03-12T06:01:09;6.72;;;2.15;;
74939;SDS011;63505;45.226;37.908;2023-03-12T06:03:37;16.33;;;11.02;;
74939;SDS011;63505;45.226;37.908;2023-03-12T06:06:03;10.02;;;4.20;;
74939;SDS011;63505;45.226;37.908;2023-03-12T06:08:29;6.20;;;2.25;;
74939;SDS011;63505;45.226;37.908;2023-03-12T06:10:55;29.77;;;16.13;;
74939;SDS011;63505;45.226;37.908;2023-03-12T06:13:22;6.68;;;2.00;;
74939;SDS011;63505;45.226;37.908;2023-03-12T06:15:48;6.90;;;3.28;;
74939;SDS011;63505;45.226;37.908;2023-03-12T06:18:14;21.50;;;3.60;;
74939;SDS011;63505;45.226;37.908;2023-03-12T06:20:41;4.85;;;1.52;;
74939;SDS011;63505;45.226;37.908;2023-03-12T06:23:07;8.48;;;2.67;;
74939;SDS011;63505;45.226;37.908;2023-03-12T06:25:33;6.82;;;1.98;;
74939;SDS011;63505;45.226;37.908;2023-03-12T06:27:59;7.88;;;3.42;;
74939;SDS011;63505;45.226;37.908;2023-03-12T06:30:25;9.15;;;1.67;;
74939;SDS011;63505;45.226;37.908;2023-03-12T06:32:52;9.40;;;2.42;;
74939;SDS011;63505;45.226;37.908;2023-03-12T06:35:18;4.55;;;2.15;;
74939;SDS011;63505;45.226;37.908;2023-03-12T06:37:44;3.05;;;1.60;;
74939;SDS011;63505;45.226;37.908;2023-03-12T06:40:10;2.83;;;0.82;;
74939;SDS011;63505;45.226;37.908;2023-03-12T06:42:37;3.53;;;1.48;;
74939;SDS011;63505;45.226;37.908;2023-03-12T06:45:04;3.90;;;1.50;;
74939;SDS011;63505;45.226;37.908;2023-03-12T06:47:30;2.42;;;1.48;;
74939;SDS011;63505;45.226;37.908;2023-03-12T06:49:56;6.35;;;2.13;;
74939;SDS011;63505;45.226;37.908;2023-03-12T06:52:22;2.90;;;1.20;;
74939;SDS011;63505;45.226;37.908;2023-03-12T06:54:48;3.40;;;1.45;;
74939;SDS011;63505;45.226;37.908;2023-03-12T06:57:14;7.57;;;2.30;;
74939;SDS011;63505;45.226;37.908;2023-03-12T06:59:41;13.02;;;4.70;;
74939;SDS011;63505;45.226;37.908;2023-03-12T07:02:08;8.15;;;2.28;;
74939;SDS011;63505;45.226;37.908;2023-03-12T07:04:35;3.47;;;1.92;;
74939;SDS011;63505;45.226;37.908;2023-03-12T07:07:01;3.15;;;1.17;;
74939;SDS011;63505;45.226;37.908;2023-03-12T07:09:27;3.55;;;1.30;;
74939;SDS011;63505;45.226;37.908;2023-03-12T07:11:53;7.50;;;2.63;;
74939;SDS011;63505;45.226;37.908;2023-03-12T07:14:19;9.02;;;1.83;;
74939;SDS011;63505;45.226;37.908;2023-03-12T07:16:46;4.32;;;1.65;;
74939;SDS011;63505;45.226;37.908;2023-03-12T07:19:12;5.60;;;1.90;;
74939;SDS011;63505;45.226;37.908;2023-03-12T07:21:37;6.10;;;1.65;;
74939;SDS011;63505;45.226;37.908;2023-03-12T07:24:03;5.22;;;1.42;;
74939;SDS011;63505;45.226;37.908;2023-03-12T07:26:34;2.92;;;1.55;;
74939;SDS011;63505;45.226;37.908;2023-03-12T07:29:00;5.15;;;1.67;;
74939;SDS011;63505;45.226;37.908;2023-03-12T07:31:28;4.45;;;1.50;;
74939;SDS011;63505;45.226;37.908;2023-03-12T07:33:54;4.68;;;1.13;;
74939;SDS011;63505;45.226;37.908;2023-03-12T07:36:19;6.18;;;1.58;;
74939;SDS011;63505;45.226;37.908;2023-03-12T07:38:45;8.82;;;1.92;;
74939;SDS011;63505;45.226;37.908;2023-03-12T07:41:11;6.28;;;1.85;;
74939;SDS011;63505;45.226;37.908;2023-03-12T07:43:37;5.85;;;2.97;;
74939;SDS011;63505;45.226;37.908;2023-03-12T07:46:03;3.40;;;1.63;;
74939;SDS011;63505;45.226;37.908;2023-03-12T07:48:29;4.72;;;2.03;;
74939;SDS011;63505;45.226;37.908;2023-03-12T07:50:55;8.32;;;4.32;;
74939;SDS011;63505;45.226;37.908;2023-03-12T07:53:20;7.80;;;3.10;;
74939;SDS011;63505;45.226;37.908;2023-03-12T07:55:46;8.77;;;2.78;;
74939;SDS011;63505;45.226;37.908;2023-03-12T07:58:13;4.05;;;2.00;;
74939;SDS011;63505;45.226;37.908;2023-03-12T08:00:40;4.97;;;2.03;;
74939;SDS011;63505;45.226;37.908;2023-03-12T08:03:06;6.82;;;2.40;;
74939;SDS011;63505;45.226;37.908;2023-03-12T08:05:32;3.42;;;1.75;;
74939;SDS011;63505;45.226;37.908;2023-03-12T08:07:57;4.85;;;2.40;;
74939;SDS011;63505;45.226;37.908;2023-03-12T08:10:23;6.05;;;2.33;;
74939;SDS011;63505;45.226;37.908;2023-03-12T08:12:49;7.60;;;2.95;;
74939;SDS011;63505;45.226;37.908;2023-03-12T08:15:15;3.53;;;1.42;;
74939;SDS011;63505;45.226;37.908;2023-03-12T08:17:41;9.65;;;3.22;;
74939;SDS011;63505;45.226;37.908;2023-03-12T08:20:07;6.28;;;2.65;;
74939;SDS011;63505;45.226;37.908;2023-03-12T08:22:37;3.50;;;2.00;;
74939;SDS011;63505;45.226;37.908;2023-03-12T08:25:04;5.00;;;2.00;;
74939;SDS011;63505;45.226;37.908;2023-03-12T08:27:31;7.68;;;2.25;;
74939;SDS011;63505;45.226;37.908;2023-03-12T08:29:58;5.47;;;2.40;;
74939;SDS011;63505;45.226;37.908;2023-03-12T08:32:24;5.13;;;2.67;;
74939;SDS011;63505;45.226;37.908;2023-03-12T08:34:50;3.38;;;1.73;;
74939;SDS011;63505;45.226;37.908;2023-03-12T08:37:15;7.80;;;2.75;;
74939;SDS011;63505;45.226;37.908;2023-03-12T08:39:42;10.95;;;4.00;;
74939;SDS011;63505;45.226;37.908;2023-03-12T08:42:08;2.97;;;1.92;;
74939;SDS011;63505;45.226;37.908;2023-03-12T08:44:33;6.68;;;2.42;;
74939;SDS011;63505;45.226;37.908;2023-03-12T08:46:59;6.80;;;3.08;;
74939;SDS011;63505;45.226;37.908;2023-03-12T08:49:25;12.55;;;1.63;;
74939;SDS011;63505;45.226;37.908;2023-03-12T08:51:51;3.83;;;2.08;;
74939;SDS011;63505;45.226;37.908;2023-03-12T08:54:18;4.28;;;2.25;;
74939;SDS011;63505;45.226;37.908;2023-03-12T08:56:48;2.53;;;1.52;;
74939;SDS011;63505;45.226;37.908;2023-03-12T08:59:16;2.80;;;1.40;;
74939;SDS011;63505;45.226;37.908;2023-03-12T09:01:42;3.95;;;2.38;;
74939;SDS011;63505;45.226;37.908;2023-03-12T09:04:08;2.92;;;2.10;;
74939;SDS011;63505;45.226;37.908;2023-03-12T09:06:35;2.80;;;1.75;;
74939;SDS011;63505;45.226;37.908;2023-03-12T09:09:01;5.75;;;2.42;;
74939;SDS011;63505;45.226;37.908;2023-03-12T09:11:30;4.13;;;1.75;;
74939;SDS011;63505;45.226;37.908;2023-03-12T09:13:58;4.25;;;1.92;;
74939;SDS011;63505;45.226;37.908;2023-03-12T09:16:24;4.90;;;2.58;;
74939;SDS011;63505;45.226;37.908;2023-03-12T09:18:51;2.85;;;1.88;;
74939;SDS011;63505;45.226;37.908;2023-03-12T09:21:17;5.82;;;2.13;;
74939;SDS011;63505;45.226;37.908;2023-03-12T09:23:43;3.20;;;1.75;;
74939;SDS011;63505;45.226;37.908;2023-03-12T09:26:09;2.65;;;1.30;;
74939;SDS011;63505;45.226;37.908;2023-03-12T09:28:35;9.60;;;3.10;;
74939;SDS011;63505;45.226;37.908;2023-03-12T09:31:02;3.95;;;1.65;;
74939;SDS011;63505;45.226;37.908;2023-03-12T09:33:29;6.88;;;2.53;;
74939;SDS011;63505;45.226;37.908;2023-03-12T09:35:58;5.10;;;2.10;;
74939;SDS011;63505;45.226;37.908;2023-03-12T09:38:25;3.25;;;1.92;;
74939;SDS011;63505;45.226;37.908;2023-03-12T09:40:51;7.32;;;2.33;;
74939;SDS011;63505;45.226;37.908;2023-03-12T09:43:41;5.57;;;2.00;;
74939;SDS011;63505;45.226;37.908;2023-03-12T09:46:15;4.25;;;1.42;;
74939;SDS011;63505;45.226;37.908;2023-03-12T09:48:47;5.20;;;1.92;;
74939;SDS011;63505;45.226;37.908;2023-03-12T09:51:19;1.98;;;1.08;;
74939;SDS011;63505;45.226;37.908;2023-03-12T09:53:51;3.35;;;1.77;;
74939;SDS011;63505;45.226;37.908;2023-03-12T09:56:21;2.70;;;1.10;;
74939;SDS011;63505;45.226;37.908;2023-03-12T09:58:47;5.00;;;1.65;;
74939;SDS011;63505;45.226;37.908;2023-03-12T10:17:42;4.78;;;2.08;;
74939;SDS011;63505;45.226;37.908;2023-03-12T10:25:39;3.65;;;1.60;;
74939;SDS011;63505;45.226;37.908;2023-03-12T10:28:13;2.15;;;1.15;;
74939;SDS011;63505;45.226;37.908;2023-03-12T10:30:44;3.72;;;1.88;;
74939;SDS011;63505;45.226;37.908;2023-03-12T10:33:15;2.53;;;1.52;;
74939;SDS011;63505;45.226;37.908;2023-03-12T10:35:43;2.30;;;1.00;;
74939;SDS011;63505;45.226;37.908;2023-03-12T10:38:30;3.28;;;1.58;;
74939;SDS011;63505;45.226;37.908;2023-03-12T10:40:55;2.15;;;1.33;;
74939;SDS011;63505;45.226;37.908;2023-03-12T10:43:21;4.50;;;2.13;;
74939;SDS011;63505;45.226;37.908;2023-03-12T10:49:16;5.38;;;1.98;;
74939;SDS011;63505;45.226;37.908;2023-03-12T10:54:33;5.88;;;1.65;;
74939;SDS011;63505;45.226;37.908;2023-03-12T10:57:05;3.40;;;1.90;;
74939;SDS011;63505;45.226;37.908;2023-03-12T10:59:36;4.05;;;1.80;;
74939;SDS011;63505;45.226;37.908;2023-03-12T11:04:54;2.28;;;1.27;;
74939;SDS011;63505;45.226;37.908;2023-03-12T11:07:24;6.82;;;2.80;;
74939;SDS011;63505;45.226;37.908;2023-03-12T11:12:31;3.67;;;1.70;;
74939;SDS011;63505;45.226;37.908;2023-03-12T11:18:17;2.50;;;1.17;;
74939;SDS011;63505;45.226;37.908;2023-03-12T11:23:36;3.72;;;2.00;;
74939;SDS011;63505;45.226;37.908;2023-03-12T11:26:13;1.38;;;0.73;;
74939;SDS011;63505;45.226;37.908;2023-03-12T11:28:48;4.30;;;1.83;;
74939;SDS011;63505;45.226;37.908;2023-03-12T11:31:30;3.80;;;1.58;;
74939;SDS011;63505;45.226;37.908;2023-03-12T11:34:06;3.30;;;1.67;;
74939;SDS011;63505;45.226;37.908;2023-03-12T11:36:41;2.42;;;1.42;;
74939;SDS011;63505;45.226;37.908;2023-03-12T11:42:10;4.93;;;1.60;;
74939;SDS011;63505;45.226;37.908;2023-03-12T11:57:43;5.90;;;2.72;;
74939;SDS011;63505;45.226;37.908;2023-03-12T12:00:28;2.90;;;1.50;;
74939;SDS011;63505;45.226;37.908;2023-03-12T12:21:51;3.38;;;1.63;;
74939;SDS011;63505;45.226;37.908;2023-03-12T12:27:35;3.30;;;1.17;;
74939;SDS011;63505;45.226;37.908;2023-03-12T12:33:40;4.68;;;2.05;;
74939;SDS011;63505;45.226;37.908;2023-03-12T12:36:27;2.15;;;1.02;;
74939;SDS011;63505;45.226;37.908;2023-03-12T12:38:59;3.08;;;1.15;;
74939;SDS011;63505;45.226;37.908;2023-03-12T12:41:34;6.72;;;2.05;;
74939;SDS011;63505;45.226;37.908;2023-03-12T12:44:10;5.70;;;2.00;;
74939;SDS011;63505;45.226;37.908;2023-03-12T12:46:47;3.78;;;1.83;;
74939;SDS011;63505;45.226;37.908;2023-03-12T12:49:22;3.30;;;1.20;;
74939;SDS011;63505;45.226;37.908;2023-03-12T12:51:55;5.47;;;2.20;;
74939;SDS011;63505;45.226;37.908;2023-03-12T12:54:28;2.65;;;1.25;;
74939;SDS011;63505;45.226;37.908;2023-03-12T12:57:04;1.13;;;0.60;;
74939;SDS011;63505;45.226;37.908;2023-03-12T13:02:32;2.92;;;1.48;;
74939;SDS011;63505;45.226;37.908;2023-03-12T13:05:01;5.63;;;2.30;;
74939;SDS011;63505;45.226;37.908;2023-03-12T13:07:29;5.03;;;2.58;;
74939;SDS011;63505;45.226;37.908;2023-03-12T13:09:57;9.73;;;3.25;;
74939;SDS011;63505;45.226;37.908;2023-03-12T13:12:26;3.75;;;2.28;;
74939;SDS011;63505;45.226;37.908;2023-03-12T13:14:59;7.43;;;3.15;;
74939;SDS011;63505;45.226;37.908;2023-03-12T13:17:34;6.22;;;3.13;;
74939;SDS011;63505;45.226;37.908;2023-03-12T13:20:21;5.43;;;2.60;;
74939;SDS011;63505;45.226;37.908;2023-03-12T13:28:35;6.90;;;2.75;;
74939;SDS011;63505;45.226;37.908;2023-03-12T13:33:52;11.82;;;4.13;;
74939;SDS011;63505;45.226;37.908;2023-03-12T13:36:32;7.60;;;3.45;;
74939;SDS011;63505;45.226;37.908;2023-03-12T13:43:58;8.98;;;4.82;;
74939;SDS011;63505;45.226;37.908;2023-03-12T13:46:31;12.23;;;5.20;;
74939;SDS011;63505;45.226;37.908;2023-03-12T13:49:02;14.40;;;5.35;;
74939;SDS011;63505;45.226;37.908;2023-03-12T13:51:37;10.13;;;5.22;;
74939;SDS011;63505;45.226;37.908;2023-03-12T13:54:14;10.85;;;4.80;;
74939;SDS011;63505;45.226;37.908;2023-03-12T13:56:45;9.43;;;5.03;;
74939;SDS011;63505;45.226;37.908;2023-03-12T13:59:21;11.52;;;5.75;;
74939;SDS011;63505;45.226;37.908;2023-03-12T14:01:49;7.10;;;3.55;;
74939;SDS011;63505;45.226;37.908;2023-03-12T14:04:21;11.02;;;5.30;;
74939;SDS011;63505;45.226;37.908;2023-03-12T14:07:13;10.48;;;5.65;;
74939;SDS011;63505;45.226;37.908;2023-03-12T14:13:00;12.60;;;7.03;;
74939;SDS011;63505;45.226;37.908;2023-03-12T14:16:04;11.52;;;6.00;;
74939;SDS011;63505;45.226;37.908;2023-03-12T14:18:40;11.15;;;5.35;;
74939;SDS011;63505;45.226;37.908;2023-03-12T14:21:11;15.23;;;7.57;;
74939;SDS011;63505;45.226;37.908;2023-03-12T14:23:50;10.65;;;6.15;;
74939;SDS011;63505;45.226;37.908;2023-03-12T14:26:22;12.68;;;7.35;;
74939;SDS011;63505;45.226;37.908;2023-03-12T14:29:06;13.10;;;6.50;;
74939;SDS011;63505;45.226;37.908;2023-03-12T14:31:53;16.25;;;7.70;;
74939;SDS011;63505;45.226;37.908;2023-03-12T14:34:24;13.60;;;7.20;;
74939;SDS011;63505;45.226;37.908;2023-03-12T14:39:45;18.60;;;8.35;;
74939;SDS011;63505;45.226;37.908;2023-03-12T14:45:01;27.73;;;13.45;;
74939;SDS011;63505;45.226;37.908;2023-03-12T14:47:28;9.95;;;6.05;;
74939;SDS011;63505;45.226;37.908;2023-03-12T14:49:55;21.52;;;7.95;;
74939;SDS011;63505;45.226;37.908;2023-03-12T14:52:24;12.73;;;7.50;;
74939;SDS011;63505;45.226;37.908;2023-03-12T14:54:53;14.27;;;8.50;;
74939;SDS011;63505;45.226;37.908;2023-03-12T14:57:33;9.32;;;5.25;;
74939;SDS011;63505;45.226;37.908;2023-03-12T15:00:00;17.92;;;8.63;;
74939;SDS011;63505;45.226;37.908;2023-03-12T15:02:27;13.30;;;7.22;;
74939;SDS011;63505;45.226;37.908;2023-03-12T15:04:55;18.60;;;9.00;;
74939;SDS011;63505;45.226;37.908;2023-03-12T15:07:27;15.00;;;7.70;;
74939;SDS011;63505;45.226;37.908;2023-03-12T15:09:59;15.70;;;8.25;;
74939;SDS011;63505;45.226;37.908;2023-03-12T15:12:32;14.23;;;8.77;;
74939;SDS011;63505;45.226;37.908;2023-03-12T15:15:08;26.80;;;14.20;;
74939;SDS011;63505;45.226;37.908;2023-03-12T15:17:42;16.30;;;9.32;;
74939;SDS011;63505;45.226;37.908;2023-03-12T15:20:10;18.75;;;8.75;;
74939;SDS011;63505;45.226;37.908;2023-03-12T15:22:40;11.95;;;6.80;;
74939;SDS011;63505;45.226;37.908;2023-03-12T15:25:49;18.25;;;9.20;;
74939;SDS011;63505;45.226;37.908;2023-03-12T15:28:05;18.45;;;10.50;;
74939;SDS011;63505;45.226;37.908;2023-03-12T15:30:36;15.82;;;9.50;;
74939;SDS011;63505;45.226;37.908;2023-03-12T15:35:31;16.77;;;9.57;;
74939;SDS011;63505;45.226;37.908;2023-03-12T15:37:57;14.07;;;7.80;;
74939;SDS011;63505;45.226;37.908;2023-03-12T15:40:24;18.33;;;9.80;;
74939;SDS011;63505;45.226;37.908;2023-03-12T15:42:52;16.17;;;9.85;;
74939;SDS011;63505;45.226;37.908;2023-03-12T15:45:38;19.67;;;9.93;;
74939;SDS011;63505;45.226;37.908;2023-03-12T15:51:14;22.80;;;9.57;;
74939;SDS011;63505;45.226;37.908;2023-03-12T15:54:03;22.35;;;12.40;;
74939;SDS011;63505;45.226;37.908;2023-03-12T15:56:45;18.70;;;8.95;;
74939;SDS011;63505;45.226;37.908;2023-03-12T16:01:47;19.10;;;9.52;;
74939;SDS011;63505;45.226;37.908;2023-03-12T16:06:42;14.30;;;8.60;;
74939;SDS011;63505;45.226;37.908;2023-03-12T16:09:14;16.02;;;9.05;;
74939;SDS011;63505;45.226;37.908;2023-03-12T16:11:52;16.10;;;8.90;;
74939;SDS011;63505;45.226;37.908;2023-03-12T16:16:56;17.52;;;8.73;;
74939;SDS011;63505;45.226;37.908;2023-03-12T16:19:23;17.42;;;9.25;;
74939;SDS011;63505;45.226;37.908;2023-03-12T16:21:52;15.95;;;8.93;;
74939;SDS011;63505;45.226;37.908;2023-03-12T16:24:19;15.45;;;9.45;;
74939;SDS011;63505;45.226;37.908;2023-03-12T16:26:50;27.45;;;14.23;;
74939;SDS011;63505;45.226;37.908;2023-03-12T16:29:19;17.33;;;8.80;;
74939;SDS011;63505;45.226;37.908;2023-03-12T16:31:50;17.60;;;10.13;;
74939;SDS011;63505;45.226;37.908;2023-03-12T16:34:20;15.82;;;9.40;;
74939;SDS011;63505;45.226;37.908;2023-03-12T16:36:46;15.18;;;8.27;;
74939;SDS011;63505;45.226;37.908;2023-03-12T16:39:13;83.68;;;42.10;;
74939;SDS011;63505;45.226;37.908;2023-03-12T16:41:39;30.35;;;12.90;;
74939;SDS011;63505;45.226;37.908;2023-03-12T16:44:06;15.15;;;8.75;;
74939;SDS011;63505;45.226;37.908;2023-03-12T16:46:38;33.75;;;12.63;;
74939;SDS011;63505;45.226;37.908;2023-03-12T16:49:04;22.48;;;11.77;;
74939;SDS011;63505;45.226;37.908;2023-03-12T16:51:31;14.70;;;7.85;;
74939;SDS011;63505;45.226;37.908;2023-03-12T16:53:57;12.07;;;7.35;;
74939;SDS011;63505;45.226;37.908;2023-03-12T16:56:24;11.32;;;7.18;;
74939;SDS011;63505;45.226;37.908;2023-03-12T16:58:52;11.88;;;6.85;;
74939;SDS011;63505;45.226;37.908;2023-03-12T17:01:19;15.38;;;8.15;;